Time,TemperatureF,DewpointF,PressureIn,WindDirection,WindDirectionDegrees,WindSpeedMPH,WindSpeedGustMPH,Humidity,HourlyPrecipIn,Conditions,Clouds,dailyrainin,SoftwareType,DateUTC
2013-07-10 01:30:00,74.0,-99.9,29.75,SW,220,11.0,13.0,-999,-99.99,,,-99.99,,2013-07-10 06:30:00,
2013-07-10 02:01:00,74.0,-99.9,29.75,SW,220,11.0,13.0,-999,-99.99,,,-99.99,,2013-07-10 07:01:00,
2013-07-10 02:12:00,74.0,-99.9,29.75,SW,220,11.0,13.0,-999,-99.99,,,-99.99,,2013-07-10 07:12:00,
2013-07-10 02:22:00,74.0,-99.9,29.75,SW,220,11.0,13.0,-999,-99.99,,,-99.99,,2013-07-10 07:22:00,
2013-07-10 02:30:00,73.0,-99.9,29.75,SW,230,11.0,13.0,-999,-99.99,,,-99.99,,2013-07-10 07:30:00,
2013-07-10 03:00:00,73.0,-99.9,29.75,SW,230,13.0,16.0,-999,-99.99,,,-99.99,,2013-07-10 08:00:00,
2013-07-10 03:12:00,73.0,-99.9,29.75,SW,230,11.0,13.0,-999,-99.99,,,-99.99,,2013-07-10 08:12:00,
2013-07-10 03:23:00,73.0,-99.9,29.75,SW,230,11.0,13.0,-999,-99.99,,,-99.99,,2013-07-10 08:23:00,
2013-07-10 03:53:00,73.0,-99.9,29.75,SW,230,13.0,16.0,-999,-99.99,,,-99.99,,2013-07-10 08:53:00,
2013-07-10 04:00:00,73.0,-99.9,29.77,WSW,250,16.0,18.0,-999,-99.99,,,-99.99,,2013-07-10 09:00:00,
2013-07-10 04:53:00,73.0,-99.9,29.77,WSW,250,16.0,18.0,-999,-99.99,,,-99.99,,2013-07-10 09:53:00,
2013-07-10 06:00:00,70.0,-99.9,29.81,West,270,20.0,25.0,-999,-99.99,,,-99.99,,2013-07-10 11:00:00,
2013-07-10 06:33:00,70.0,-99.9,29.81,West,270,20.0,25.0,-999,-99.99,,,-99.99,,2013-07-10 11:33:00,
2013-07-10 06:43:00,70.0,-99.9,29.81,West,270,20.0,25.0,-999,-99.99,,,-99.99,,2013-07-10 11:43:00,
2013-07-10 06:52:00,70.0,-99.9,29.81,West,270,20.0,25.0,-999,-99.99,,,-99.99,,2013-07-10 11:52:00,
2013-07-10 10:00:00,69.0,-99.9,29.86,West,280,18.0,22.0,-999,-99.99,,,-99.99,,2013-07-10 15:00:00,
2013-07-10 10:30:00,70.0,-99.9,29.87,WNW,290,20.0,25.0,-999,-99.99,,,-99.99,,2013-07-10 15:30:00,
2013-07-10 10:43:00,69.0,-99.9,29.86,West,280,18.0,22.0,-999,-99.99,,,-99.99,,2013-07-10 15:43:00,
2013-07-10 10:52:00,69.0,-99.9,29.86,West,280,18.0,22.0,-999,-99.99,,,-99.99,,2013-07-10 15:52:00,
2013-07-10 11:00:00,70.0,-99.9,29.87,West,270,16.0,20.0,-999,-99.99,,,-99.99,,2013-07-10 16:00:00,
2013-07-10 11:11:00,70.0,-99.9,29.87,WNW,290,20.0,25.0,-999,-99.99,,,-99.99,,2013-07-10 16:11:00,
2013-07-10 11:23:00,70.0,-99.9,29.87,WNW,290,20.0,25.0,-999,-99.99,,,-99.99,,2013-07-10 16:23:00,
2013-07-10 11:44:00,70.0,-99.9,29.87,West,270,16.0,20.0,-999,-99.99,,,-99.99,,2013-07-10 16:44:00,
2013-07-10 11:53:00,70.0,-99.9,29.87,West,270,16.0,20.0,-999,-99.99,,,-99.99,,2013-07-10 16:53:00,
2013-07-10 12:00:00,71.0,-99.9,29.89,West,280,18.0,20.0,-999,-99.99,,,-99.99,,2013-07-10 17:00:00,
2013-07-10 12:23:00,71.0,-99.9,29.88,West,280,18.0,20.0,-999,-99.99,,,-99.99,,2013-07-10 17:23:00,
2013-07-10 12:32:00,71.0,-99.9,29.89,West,280,18.0,20.0,-999,-99.99,,,-99.99,,2013-07-10 17:32:00,
2013-07-10 12:43:00,71.0,-99.9,29.89,West,280,18.0,20.0,-999,-99.99,,,-99.99,,2013-07-10 17:43:00,
2013-07-10 12:53:00,71.0,-99.9,29.89,West,280,18.0,20.0,-999,-99.99,,,-99.99,,2013-07-10 17:53:00,
2013-07-10 13:00:00,72.0,-99.9,29.90,West,280,16.0,20.0,-999,-99.99,,,-99.99,,2013-07-10 18:00:00,
2013-07-10 13:32:00,72.0,-99.9,29.90,West,280,16.0,20.0,-999,-99.99,,,-99.99,,2013-07-10 18:32:00,
2013-07-10 13:44:00,72.0,-99.9,29.90,West,280,16.0,20.0,-999,-99.99,,,-99.99,,2013-07-10 18:44:00,
2013-07-10 13:53:00,72.0,-99.9,29.90,West,280,16.0,20.0,-999,-99.99,,,-99.99,,2013-07-10 18:53:00,